sensor_id;sensor_type;location;lat;lon;timestamp;P1;durP1;ratioP1;P2;durP2;ratioP2
61527;SDS011;47395;42.032;-8.634;2022-09-17T00:00:10;10.55;;;7.72;;
61527;SDS011;47395;42.032;-8.634;2022-09-17T00:02:11;9.60;;;6.72;;
61527;SDS011;47395;42.032;-8.634;2022-09-17T00:04:13;7.70;;;6.53;;
61527;SDS011;47395;42.032;-8.634;2022-09-17T00:06:13;16.67;;;6.32;;
61527;SDS011;47395;42.032;-8.634;2022-09-17T00:08:15;8.77;;;6.32;;
61527;SDS011;47395;42.032;-8.634;2022-09-17T00:10:16;9.02;;;6.93;;
61527;SDS011;47395;42.032;-8.634;2022-09-17T00:12:18;12.88;;;6.38;;
61527;SDS011;47395;42.032;-8.634;2022-09-17T00:14:19;8.05;;;6.32;;
61527;SDS011;47395;42.032;-8.634;2022-09-17T00:16:24;10.82;;;6.65;;
61527;SDS011;47395;42.032;-8.634;2022-09-17T00:20:36;9.88;;;6.47;;
61527;SDS011;47395;42.032;-8.634;2022-09-17T00:22:40;7.53;;;6.53;;
61527;SDS011;47395;42.032;-8.634;2022-09-17T00:24:41;13.48;;;7.70;;
61527;SDS011;47395;42.032;-8.634;2022-09-17T00:26:42;13.57;;;7.50;;
61527;SDS011;47395;42.032;-8.634;2022-09-17T00:28:43;10.82;;;6.95;;
61527;SDS011;47395;42.032;-8.634;2022-09-17T00:30:47;11.50;;;6.93;;
61527;SDS011;47395;42.032;-8.634;2022-09-17T00:32:48;8.23;;;7.30;;
61527;SDS011;47395;42.032;-8.634;2022-09-17T00:34:50;7.65;;;6.35;;
61527;SDS011;47395;42.032;-8.634;2022-09-17T00:36:51;10.63;;;6.78;;
61527;SDS011;47395;42.032;-8.634;2022-09-17T00:38:53;11.73;;;6.25;;
61527;SDS011;47395;42.032;-8.634;2022-09-17T00:40:55;15.35;;;6.00;;
61527;SDS011;47395;42.032;-8.634;2022-09-17T00:42:56;12.05;;;5.80;;
61527;SDS011;47395;42.032;-8.634;2022-09-17T00:44:57;9.50;;;6.20;;
61527;SDS011;47395;42.032;-8.634;2022-09-17T00:46:57;13.75;;;6.32;;
61527;SDS011;47395;42.032;-8.634;2022-09-17T00:48:59;10.05;;;6.82;;
61527;SDS011;47395;42.032;-8.634;2022-09-17T00:51:14;8.77;;;6.97;;
61527;SDS011;47395;42.032;-8.634;2022-09-17T00:53:20;11.30;;;7.00;;
61527;SDS011;47395;42.032;-8.634;2022-09-17T00:55:32;13.43;;;6.38;;
61527;SDS011;47395;42.032;-8.634;2022-09-17T00:57:35;7.65;;;6.45;;
61527;SDS011;47395;42.032;-8.634;2022-09-17T00:59:36;10.25;;;6.68;;
61527;SDS011;47395;42.032;-8.634;2022-09-17T01:01:37;7.43;;;6.10;;
61527;SDS011;47395;42.032;-8.634;2022-09-17T01:03:38;11.77;;;6.47;;
61527;SDS011;47395;42.032;-8.634;2022-09-17T01:05:43;13.13;;;6.80;;
61527;SDS011;47395;42.032;-8.634;2022-09-17T01:07:56;6.75;;;6.15;;
61527;SDS011;47395;42.032;-8.634;2022-09-17T01:12:56;14.65;;;6.75;;
61527;SDS011;47395;42.032;-8.634;2022-09-17T01:15:25;11.05;;;5.70;;
61527;SDS011;47395;42.032;-8.634;2022-09-17T01:33:40;9.90;;;6.78;;
61527;SDS011;47395;42.032;-8.634;2022-09-17T01:38:53;8.48;;;5.35;;
61527;SDS011;47395;42.032;-8.634;2022-09-17T01:43:02;9.07;;;5.30;;
61527;SDS011;47395;42.032;-8.634;2022-09-17T01:45:16;10.25;;;5.70;;
61527;SDS011;47395;42.032;-8.634;2022-09-17T01:49:59;6.40;;;5.43;;
61527;SDS011;47395;42.032;-8.634;2022-09-17T01:52:04;11.07;;;5.40;;
61527;SDS011;47395;42.032;-8.634;2022-09-17T01:54:13;12.43;;;5.20;;
61527;SDS011;47395;42.032;-8.634;2022-09-17T01:56:35;8.38;;;5.88;;
61527;SDS011;47395;42.032;-8.634;2022-09-17T01:58:41;9.25;;;6.13;;
61527;SDS011;47395;42.032;-8.634;2022-09-17T02:00:58;14.48;;;5.88;;
61527;SDS011;47395;42.032;-8.634;2022-09-17T02:03:16;7.60;;;5.43;;
61527;SDS011;47395;42.032;-8.634;2022-09-17T02:05:33;8.57;;;5.50;;
61527;SDS011;47395;42.032;-8.634;2022-09-17T02:07:48;8.27;;;5.45;;
61527;SDS011;47395;42.032;-8.634;2022-09-17T02:09:58;9.52;;;5.60;;
61527;SDS011;47395;42.032;-8.634;2022-09-17T02:12:05;15.82;;;5.75;;
61527;SDS011;47395;42.032;-8.634;2022-09-17T02:14:10;6.82;;;5.88;;
61527;SDS011;47395;42.032;-8.634;2022-09-17T02:16:16;11.45;;;6.40;;
61527;SDS011;47395;42.032;-8.634;2022-09-17T02:18:26;7.32;;;5.75;;
61527;SDS011;47395;42.032;-8.634;2022-09-17T02:21:38;6.75;;;5.28;;
61527;SDS011;47395;42.032;-8.634;2022-09-17T02:23:51;8.82;;;5.63;;
61527;SDS011;47395;42.032;-8.634;2022-09-17T02:26:14;8.57;;;5.75;;
61527;SDS011;47395;42.032;-8.634;2022-09-17T02:28:27;11.95;;;5.00;;
61527;SDS011;47395;42.032;-8.634;2022-09-17T02:30:40;8.65;;;5.22;;
61527;SDS011;47395;42.032;-8.634;2022-09-17T02:32:41;11.20;;;6.18;;
61527;SDS011;47395;42.032;-8.634;2022-09-17T02:34:42;10.30;;;5.57;;
61527;SDS011;47395;42.032;-8.634;2022-09-17T02:36:43;6.07;;;5.57;;
61527;SDS011;47395;42.032;-8.634;2022-09-17T02:38:44;9.65;;;5.78;;
61527;SDS011;47395;42.032;-8.634;2022-09-17T02:40:49;5.78;;;5.22;;
61527;SDS011;47395;42.032;-8.634;2022-09-17T02:53:48;5.60;;;5.10;;
61527;SDS011;47395;42.032;-8.634;2022-09-17T02:56:13;6.70;;;5.03;;
61527;SDS011;47395;42.032;-8.634;2022-09-17T03:01:24;5.63;;;5.13;;
61527;SDS011;47395;42.032;-8.634;2022-09-17T03:03:37;7.13;;;5.45;;
61527;SDS011;47395;42.032;-8.634;2022-09-17T03:05:40;10.35;;;5.97;;
61527;SDS011;47395;42.032;-8.634;2022-09-17T03:07:43;9.35;;;5.57;;
61527;SDS011;47395;42.032;-8.634;2022-09-17T03:09:44;10.40;;;5.45;;
61527;SDS011;47395;42.032;-8.634;2022-09-17T03:11:45;5.97;;;5.20;;
61527;SDS011;47395;42.032;-8.634;2022-09-17T03:13:46;9.30;;;5.20;;
61527;SDS011;47395;42.032;-8.634;2022-09-17T03:15:47;8.30;;;5.32;;
61527;SDS011;47395;42.032;-8.634;2022-09-17T03:17:48;6.88;;;5.18;;
61527;SDS011;47395;42.032;-8.634;2022-09-17T03:19:48;11.30;;;5.57;;
61527;SDS011;47395;42.032;-8.634;2022-09-17T03:21:49;6.70;;;5.68;;
61527;SDS011;47395;42.032;-8.634;2022-09-17T03:23:50;6.05;;;4.95;;
61527;SDS011;47395;42.032;-8.634;2022-09-17T03:25:52;7.40;;;5.82;;
61527;SDS011;47395;42.032;-8.634;2022-09-17T03:27:54;14.43;;;5.15;;
61527;SDS011;47395;42.032;-8.634;2022-09-17T03:29:55;5.47;;;4.97;;
61527;SDS011;47395;42.032;-8.634;2022-09-17T03:31:55;6.10;;;5.60;;
61527;SDS011;47395;42.032;-8.634;2022-09-17T03:33:56;8.10;;;5.43;;
61527;SDS011;47395;42.032;-8.634;2022-09-17T03:35:58;6.82;;;4.90;;
61527;SDS011;47395;42.032;-8.634;2022-09-17T03:37:58;9.02;;;5.10;;
61527;SDS011;47395;42.032;-8.634;2022-09-17T03:39:59;6.30;;;5.50;;
61527;SDS011;47395;42.032;-8.634;2022-09-17T03:42:00;7.70;;;5.95;;
61527;SDS011;47395;42.032;-8.634;2022-09-17T03:44:01;6.22;;;5.63;;
61527;SDS011;47395;42.032;-8.634;2022-09-17T03:46:02;11.68;;;5.78;;
61527;SDS011;47395;42.032;-8.634;2022-09-17T03:48:03;9.20;;;5.53;;
61527;SDS011;47395;42.032;-8.634;2022-09-17T03:50:04;6.68;;;5.40;;
61527;SDS011;47395;42.032;-8.634;2022-09-17T03:52:06;6.03;;;5.40;;
61527;SDS011;47395;42.032;-8.634;2022-09-17T03:54:07;9.95;;;5.90;;
61527;SDS011;47395;42.032;-8.634;2022-09-17T03:56:08;6.80;;;6.03;;
61527;SDS011;47395;42.032;-8.634;2022-09-17T03:58:09;9.85;;;6.20;;
61527;SDS011;47395;42.032;-8.634;2022-09-17T04:00:10;9.82;;;6.68;;
61527;SDS011;47395;42.032;-8.634;2022-09-17T04:04:52;9.13;;;6.60;;
61527;SDS011;47395;42.032;-8.634;2022-09-17T04:06:53;7.55;;;6.70;;
61527;SDS011;47395;42.032;-8.634;2022-09-17T04:08:54;12.32;;;6.55;;
61527;SDS011;47395;42.032;-8.634;2022-09-17T04:10:56;10.52;;;6.90;;
61527;SDS011;47395;42.032;-8.634;2022-09-17T04:12:56;10.07;;;6.40;;
61527;SDS011;47395;42.032;-8.634;2022-09-17T04:14:57;11.80;;;6.30;;
61527;SDS011;47395;42.032;-8.634;2022-09-17T04:16:58;9.90;;;6.57;;
61527;SDS011;47395;42.032;-8.634;2022-09-17T04:18:59;8.70;;;6.72;;
61527;SDS011;47395;42.032;-8.634;2022-09-17T04:20:59;6.57;;;5.97;;
61527;SDS011;47395;42.032;-8.634;2022-09-17T04:23:00;8.27;;;6.78;;
61527;SDS011;47395;42.032;-8.634;2022-09-17T04:25:01;6.40;;;5.80;;
61527;SDS011;47395;42.032;-8.634;2022-09-17T04:27:02;7.70;;;6.22;;
61527;SDS011;47395;42.032;-8.634;2022-09-17T04:29:03;7.60;;;6.20;;
61527;SDS011;47395;42.032;-8.634;2022-09-17T04:31:03;10.35;;;6.15;;
61527;SDS011;47395;42.032;-8.634;2022-09-17T04:33:04;9.65;;;6.20;;
61527;SDS011;47395;42.032;-8.634;2022-09-17T04:35:05;9.05;;;6.82;;
61527;SDS011;47395;42.032;-8.634;2022-09-17T04:37:06;10.57;;;6.22;;
61527;SDS011;47395;42.032;-8.634;2022-09-17T04:39:07;9.02;;;6.45;;
61527;SDS011;47395;42.032;-8.634;2022-09-17T04:41:08;9.07;;;6.50;;
61527;SDS011;47395;42.032;-8.634;2022-09-17T04:43:09;7.82;;;6.32;;
61527;SDS011;47395;42.032;-8.634;2022-09-17T04:45:10;9.05;;;6.28;;
61527;SDS011;47395;42.032;-8.634;2022-09-17T04:47:11;7.18;;;6.45;;
61527;SDS011;47395;42.032;-8.634;2022-09-17T04:49:12;7.03;;;6.32;;
61527;SDS011;47395;42.032;-8.634;2022-09-17T04:51:13;7.35;;;6.18;;
61527;SDS011;47395;42.032;-8.634;2022-09-17T04:53:14;8.30;;;6.22;;
61527;SDS011;47395;42.032;-8.634;2022-09-17T04:55:15;8.65;;;6.22;;
61527;SDS011;47395;42.032;-8.634;2022-09-17T04:57:16;9.57;;;6.75;;
61527;SDS011;47395;42.032;-8.634;2022-09-17T04:59:17;11.38;;;6.93;;
61527;SDS011;47395;42.032;-8.634;2022-09-17T05:01:18;9.10;;;6.97;;
61527;SDS011;47395;42.032;-8.634;2022-09-17T05:03:18;11.10;;;7.20;;
61527;SDS011;47395;42.032;-8.634;2022-09-17T05:05:19;13.63;;;7.20;;
61527;SDS011;47395;42.032;-8.634;2022-09-17T05:07:21;11.07;;;7.40;;
61527;SDS011;47395;42.032;-8.634;2022-09-17T05:09:22;8.82;;;7.20;;
61527;SDS011;47395;42.032;-8.634;2022-09-17T05:11:23;9.20;;;6.97;;
61527;SDS011;47395;42.032;-8.634;2022-09-17T05:13:23;9.40;;;7.38;;
61527;SDS011;47395;42.032;-8.634;2022-09-17T05:15:24;9.15;;;7.30;;
61527;SDS011;47395;42.032;-8.634;2022-09-17T05:17:25;8.82;;;6.75;;
61527;SDS011;47395;42.032;-8.634;2022-09-17T05:19:26;9.00;;;7.03;;
61527;SDS011;47395;42.032;-8.634;2022-09-17T05:21:27;7.88;;;7.07;;
61527;SDS011;47395;42.032;-8.634;2022-09-17T05:23:28;8.73;;;6.80;;
61527;SDS011;47395;42.032;-8.634;2022-09-17T05:25:29;8.20;;;7.40;;
61527;SDS011;47395;42.032;-8.634;2022-09-17T05:27:30;9.00;;;7.03;;
61527;SDS011;47395;42.032;-8.634;2022-09-17T05:29:31;11.98;;;6.70;;
61527;SDS011;47395;42.032;-8.634;2022-09-17T05:31:32;7.90;;;6.55;;
61527;SDS011;47395;42.032;-8.634;2022-09-17T05:33:32;9.77;;;7.10;;
61527;SDS011;47395;42.032;-8.634;2022-09-17T05:35:34;13.85;;;7.90;;
61527;SDS011;47395;42.032;-8.634;2022-09-17T05:37:37;10.55;;;7.53;;
61527;SDS011;47395;42.032;-8.634;2022-09-17T05:39:38;11.23;;;7.53;;
61527;SDS011;47395;42.032;-8.634;2022-09-17T05:41:39;13.70;;;8.07;;
61527;SDS011;47395;42.032;-8.634;2022-09-17T05:43:41;7.75;;;7.05;;
61527;SDS011;47395;42.032;-8.634;2022-09-17T05:45:43;8.90;;;7.72;;
61527;SDS011;47395;42.032;-8.634;2022-09-17T05:47:44;10.13;;;8.30;;
61527;SDS011;47395;42.032;-8.634;2022-09-17T05:49:44;16.67;;;8.32;;
61527;SDS011;47395;42.032;-8.634;2022-09-17T05:51:45;12.13;;;8.23;;
61527;SDS011;47395;42.032;-8.634;2022-09-17T05:53:46;10.55;;;8.52;;
61527;SDS011;47395;42.032;-8.634;2022-09-17T05:55:47;9.07;;;7.28;;
61527;SDS011;47395;42.032;-8.634;2022-09-17T05:57:48;9.38;;;8.35;;
61527;SDS011;47395;42.032;-8.634;2022-09-17T05:59:50;12.43;;;8.23;;
61527;SDS011;47395;42.032;-8.634;2022-09-17T06:01:51;13.70;;;8.10;;
61527;SDS011;47395;42.032;-8.634;2022-09-17T06:03:51;13.70;;;8.90;;
61527;SDS011;47395;42.032;-8.634;2022-09-17T06:05:53;16.00;;;9.05;;
61527;SDS011;47395;42.032;-8.634;2022-09-17T06:07:58;13.30;;;8.93;;
61527;SDS011;47395;42.032;-8.634;2022-09-17T06:09:59;13.35;;;8.25;;
61527;SDS011;47395;42.032;-8.634;2022-09-17T06:12:00;11.90;;;8.68;;
61527;SDS011;47395;42.032;-8.634;2022-09-17T06:14:01;12.23;;;7.93;;
61527;SDS011;47395;42.032;-8.634;2022-09-17T06:16:03;14.05;;;9.30;;
61527;SDS011;47395;42.032;-8.634;2022-09-17T06:18:04;11.18;;;8.40;;
61527;SDS011;47395;42.032;-8.634;2022-09-17T06:20:05;17.48;;;8.80;;
61527;SDS011;47395;42.032;-8.634;2022-09-17T06:22:06;14.68;;;8.48;;
61527;SDS011;47395;42.032;-8.634;2022-09-17T06:24:08;10.85;;;9.10;;
61527;SDS011;47395;42.032;-8.634;2022-09-17T06:26:09;20.65;;;9.02;;
61527;SDS011;47395;42.032;-8.634;2022-09-17T06:28:11;12.35;;;9.15;;
61527;SDS011;47395;42.032;-8.634;2022-09-17T06:30:11;9.57;;;8.65;;
61527;SDS011;47395;42.032;-8.634;2022-09-17T06:32:12;14.88;;;8.80;;
61527;SDS011;47395;42.032;-8.634;2022-09-17T06:34:16;15.05;;;8.38;;
61527;SDS011;47395;42.032;-8.634;2022-09-17T06:36:17;10.90;;;8.90;;
61527;SDS011;47395;42.032;-8.634;2022-09-17T06:38:18;14.90;;;8.98;;
61527;SDS011;47395;42.032;-8.634;2022-09-17T06:40:19;13.02;;;9.00;;
61527;SDS011;47395;42.032;-8.634;2022-09-17T06:42:22;9.45;;;8.32;;
61527;SDS011;47395;42.032;-8.634;2022-09-17T06:44:24;10.15;;;8.18;;
61527;SDS011;47395;42.032;-8.634;2022-09-17T06:46:25;10.80;;;9.18;;
61527;SDS011;47395;42.032;-8.634;2022-09-17T06:48:26;9.63;;;8.25;;
61527;SDS011;47395;42.032;-8.634;2022-09-17T06:50:28;15.25;;;8.85;;
61527;SDS011;47395;42.032;-8.634;2022-09-17T06:52:30;12.52;;;9.63;;
61527;SDS011;47395;42.032;-8.634;2022-09-17T06:54:30;13.88;;;8.75;;
61527;SDS011;47395;42.032;-8.634;2022-09-17T06:56:31;10.88;;;8.63;;
61527;SDS011;47395;42.032;-8.634;2022-09-17T06:58:34;13.57;;;9.00;;
61527;SDS011;47395;42.032;-8.634;2022-09-17T07:00:40;10.68;;;9.27;;
61527;SDS011;47395;42.032;-8.634;2022-09-17T07:02:42;12.40;;;8.77;;
61527;SDS011;47395;42.032;-8.634;2022-09-17T07:04:42;12.10;;;8.88;;
61527;SDS011;47395;42.032;-8.634;2022-09-17T07:06:43;12.20;;;8.57;;
61527;SDS011;47395;42.032;-8.634;2022-09-17T07:08:44;12.52;;;8.32;;
61527;SDS011;47395;42.032;-8.634;2022-09-17T07:10:47;11.50;;;8.35;;
61527;SDS011;47395;42.032;-8.634;2022-09-17T07:12:48;11.65;;;10.10;;
61527;SDS011;47395;42.032;-8.634;2022-09-17T07:14:49;12.43;;;8.65;;
61527;SDS011;47395;42.032;-8.634;2022-09-17T07:16:50;9.65;;;8.50;;
61527;SDS011;47395;42.032;-8.634;2022-09-17T07:18:52;14.38;;;8.98;;
61527;SDS011;47395;42.032;-8.634;2022-09-17T07:20:56;10.95;;;8.93;;
61527;SDS011;47395;42.032;-8.634;2022-09-17T07:22:59;12.38;;;9.60;;
61527;SDS011;47395;42.032;-8.634;2022-09-17T07:24:59;13.73;;;9.25;;
61527;SDS011;47395;42.032;-8.634;2022-09-17T07:27:00;12.05;;;8.05;;
61527;SDS011;47395;42.032;-8.634;2022-09-17T07:29:01;11.07;;;7.88;;
61527;SDS011;47395;42.032;-8.634;2022-09-17T07:31:03;10.38;;;7.43;;
61527;SDS011;47395;42.032;-8.634;2022-09-17T07:33:07;12.40;;;7.15;;
61527;SDS011;47395;42.032;-8.634;2022-09-17T07:35:07;10.35;;;7.45;;
61527;SDS011;47395;42.032;-8.634;2022-09-17T07:37:08;10.95;;;7.40;;
61527;SDS011;47395;42.032;-8.634;2022-09-17T07:39:09;16.38;;;7.63;;
61527;SDS011;47395;42.032;-8.634;2022-09-17T07:41:13;11.35;;;8.02;;
61527;SDS011;47395;42.032;-8.634;2022-09-17T07:43:15;8.85;;;7.22;;
61527;SDS011;47395;42.032;-8.634;2022-09-17T07:45:16;13.18;;;7.20;;
61527;SDS011;47395;42.032;-8.634;2022-09-17T07:47:16;7.13;;;6.43;;
61527;SDS011;47395;42.032;-8.634;2022-09-17T07:49:17;11.85;;;6.75;;
61527;SDS011;47395;42.032;-8.634;2022-09-17T07:51:20;6.40;;;5.80;;
61527;SDS011;47395;42.032;-8.634;2022-09-17T07:53:25;9.32;;;6.35;;
61527;SDS011;47395;42.032;-8.634;2022-09-17T07:55:26;10.00;;;5.72;;
61527;SDS011;47395;42.032;-8.634;2022-09-17T07:57:27;14.68;;;6.20;;
61527;SDS011;47395;42.032;-8.634;2022-09-17T07:59:28;5.93;;;5.43;;
61527;SDS011;47395;42.032;-8.634;2022-09-17T08:01:30;8.45;;;5.80;;
61527;SDS011;47395;42.032;-8.634;2022-09-17T08:03:33;6.90;;;5.50;;
61527;SDS011;47395;42.032;-8.634;2022-09-17T08:05:35;6.60;;;5.28;;
61527;SDS011;47395;42.032;-8.634;2022-09-17T08:07:36;7.32;;;5.57;;
61527;SDS011;47395;42.032;-8.634;2022-09-17T08:09:36;17.25;;;6.68;;
61527;SDS011;47395;42.032;-8.634;2022-09-17T08:11:37;9.60;;;6.03;;
61527;SDS011;47395;42.032;-8.634;2022-09-17T08:13:38;8.52;;;6.30;;
61527;SDS011;47395;42.032;-8.634;2022-09-17T08:15:39;11.30;;;6.22;;
61527;SDS011;47395;42.032;-8.634;2022-09-17T08:17:43;8.93;;;6.50;;
61527;SDS011;47395;42.032;-8.634;2022-09-17T08:19:45;7.93;;;5.47;;
61527;SDS011;47395;42.032;-8.634;2022-09-17T08:21:47;10.70;;;5.53;;
61527;SDS011;47395;42.032;-8.634;2022-09-17T08:23:47;12.82;;;5.63;;
61527;SDS011;47395;42.032;-8.634;2022-09-17T08:25:54;7.57;;;5.95;;
61527;SDS011;47395;42.032;-8.634;2022-09-17T08:27:56;7.38;;;5.70;;
61527;SDS011;47395;42.032;-8.634;2022-09-17T08:29:57;12.27;;;6.07;;
61527;SDS011;47395;42.032;-8.634;2022-09-17T08:31:58;8.82;;;5.97;;
61527;SDS011;47395;42.032;-8.634;2022-09-17T08:33:59;8.23;;;6.30;;
61527;SDS011;47395;42.032;-8.634;2022-09-17T08:36:00;6.88;;;5.95;;
61527;SDS011;47395;42.032;-8.634;2022-09-17T08:38:01;6.07;;;5.47;;
61527;SDS011;47395;42.032;-8.634;2022-09-17T08:40:02;9.98;;;5.75;;
61527;SDS011;47395;42.032;-8.634;2022-09-17T08:44:41;6.65;;;5.70;;
61527;SDS011;47395;42.032;-8.634;2022-09-17T08:46:46;7.30;;;5.25;;
61527;SDS011;47395;42.032;-8.634;2022-09-17T08:48:55;11.25;;;5.70;;
61527;SDS011;47395;42.032;-8.634;2022-09-17T08:51:14;6.05;;;5.57;;
61527;SDS011;47395;42.032;-8.634;2022-09-17T08:56:25;9.82;;;5.75;;
61527;SDS011;47395;42.032;-8.634;2022-09-17T09:00:38;6.47;;;5.00;;
61527;SDS011;47395;42.032;-8.634;2022-09-17T09:03:17;5.60;;;5.07;;
61527;SDS011;47395;42.032;-8.634;2022-09-17T09:05:35;5.15;;;4.82;;
61527;SDS011;47395;42.032;-8.634;2022-09-17T09:07:49;8.15;;;4.60;;
61527;SDS011;47395;42.032;-8.634;2022-09-17T09:12:23;6.20;;;4.80;;
61527;SDS011;47395;42.032;-8.634;2022-09-17T09:14:26;5.45;;;4.65;;
61527;SDS011;47395;42.032;-8.634;2022-09-17T09:16:32;6.75;;;4.53;;
61527;SDS011;47395;42.032;-8.634;2022-09-17T09:18:37;7.18;;;5.43;;
61527;SDS011;47395;42.032;-8.634;2022-09-17T09:20:50;7.70;;;5.30;;
61527;SDS011;47395;42.032;-8.634;2022-09-17T09:22:54;7.03;;;4.90;;
61527;SDS011;47395;42.032;-8.634;2022-09-17T09:27:35;5.90;;;4.50;;
61527;SDS011;47395;42.032;-8.634;2022-09-17T09:29:45;8.02;;;5.03;;
61527;SDS011;47395;42.032;-8.634;2022-09-17T09:34:10;13.13;;;4.78;;
61527;SDS011;47395;42.032;-8.634;2022-09-17T09:36:14;4.85;;;4.50;;
61527;SDS011;47395;42.032;-8.634;2022-09-17T09:38:28;5.20;;;4.80;;
61527;SDS011;47395;42.032;-8.634;2022-09-17T09:40:35;5.18;;;4.80;;
61527;SDS011;47395;42.032;-8.634;2022-09-17T09:42:58;6.15;;;5.22;;
61527;SDS011;47395;42.032;-8.634;2022-09-17T09:45:11;6.50;;;4.78;;
61527;SDS011;47395;42.032;-8.634;2022-09-17T09:47:40;8.18;;;4.40;;
61527;SDS011;47395;42.032;-8.634;2022-09-17T09:49:48;6.22;;;4.22;;
61527;SDS011;47395;42.032;-8.634;2022-09-17T09:52:51;8.63;;;4.75;;
61527;SDS011;47395;42.032;-8.634;2022-09-17T09:55:15;5.07;;;4.53;;
61527;SDS011;47395;42.032;-8.634;2022-09-17T09:57:49;4.80;;;4.40;;
61527;SDS011;47395;42.032;-8.634;2022-09-17T10:02:26;6.85;;;4.53;;
61527;SDS011;47395;42.032;-8.634;2022-09-17T10:04:27;5.65;;;4.53;;
61527;SDS011;47395;42.032;-8.634;2022-09-17T10:06:29;8.48;;;4.55;;
61527;SDS011;47395;42.032;-8.634;2022-09-17T10:08:33;4.43;;;4.18;;
61527;SDS011;47395;42.032;-8.634;2022-09-17T10:10:36;4.20;;;3.90;;
61527;SDS011;47395;42.032;-8.634;2022-09-17T10:13:05;4.93;;;3.88;;
61527;SDS011;47395;42.032;-8.634;2022-09-17T10:17:26;6.70;;;3.80;;
61527;SDS011;47395;42.032;-8.634;2022-09-17T10:19:28;3.97;;;3.60;;
61527;SDS011;47395;42.032;-8.634;2022-09-17T10:21:30;4.22;;;3.97;;
61527;SDS011;47395;42.032;-8.634;2022-09-17T10:23:41;3.50;;;3.25;;
61527;SDS011;47395;42.032;-8.634;2022-09-17T10:25:43;5.70;;;3.55;;
61527;SDS011;47395;42.032;-8.634;2022-09-17T10:27:44;4.10;;;3.70;;
61527;SDS011;47395;42.032;-8.634;2022-09-17T10:29:48;3.55;;;3.30;;
61527;SDS011;47395;42.032;-8.634;2022-09-17T10:31:55;9.75;;;4.03;;
61527;SDS011;47395;42.032;-8.634;2022-09-17T10:33:58;6.88;;;3.50;;
61527;SDS011;47395;42.032;-8.634;2022-09-17T10:36:08;6.65;;;3.63;;
61527;SDS011;47395;42.032;-8.634;2022-09-17T10:38:28;3.92;;;3.50;;
61527;SDS011;47395;42.032;-8.634;2022-09-17T10:40:31;4.70;;;3.60;;
61527;SDS011;47395;42.032;-8.634;2022-09-17T10:42:32;4.00;;;3.75;;
61527;SDS011;47395;42.032;-8.634;2022-09-17T10:44:34;3.35;;;3.15;;
61527;SDS011;47395;42.032;-8.634;2022-09-17T10:46:36;6.32;;;3.45;;
61527;SDS011;47395;42.032;-8.634;2022-09-17T10:48:38;3.92;;;3.58;;
61527;SDS011;47395;42.032;-8.634;2022-09-17T10:50:49;3.83;;;3.53;;
61527;SDS011;47395;42.032;-8.634;2022-09-17T10:52:53;4.18;;;3.78;;
61527;SDS011;47395;42.032;-8.634;2022-09-17T10:54:58;4.30;;;4.00;;
61527;SDS011;47395;42.032;-8.634;2022-09-17T11:00:11;4.10;;;3.90;;
61527;SDS011;47395;42.032;-8.634;2022-09-17T11:05:25;7.93;;;4.63;;
61527;SDS011;47395;42.032;-8.634;2022-09-17T11:08:11;6.45;;;4.53;;
61527;SDS011;47395;42.032;-8.634;2022-09-17T11:17:42;6.43;;;4.35;;
61527;SDS011;47395;42.032;-8.634;2022-09-17T11:20:23;4.68;;;4.22;;
61527;SDS011;47395;42.032;-8.634;2022-09-17T11:25:52;4.57;;;4.18;;
61527;SDS011;47395;42.032;-8.634;2022-09-17T11:28:03;4.18;;;3.90;;
61527;SDS011;47395;42.032;-8.634;2022-09-17T11:30:32;5.30;;;4.18;;
61527;SDS011;47395;42.032;-8.634;2022-09-17T11:35:44;4.78;;;4.38;;
61527;SDS011;47395;42.032;-8.634;2022-09-17T11:40:55;6.85;;;4.63;;
61527;SDS011;47395;42.032;-8.634;2022-09-17T11:45:31;4.53;;;4.20;;
61527;SDS011;47395;42.032;-8.634;2022-09-17T11:47:39;4.57;;;3.97;;
61527;SDS011;47395;42.032;-8.634;2022-09-17T11:49:45;6.43;;;3.60;;
61527;SDS011;47395;42.032;-8.634;2022-09-17T11:51:53;4.57;;;3.85;;
61527;SDS011;47395;42.032;-8.634;2022-09-17T11:54:22;4.43;;;4.10;;
61527;SDS011;47395;42.032;-8.634;2022-09-17T12:00:00;6.90;;;3.80;;
61527;SDS011;47395;42.032;-8.634;2022-09-17T12:01:43;6.40;;;4.00;;
61527;SDS011;47395;42.032;-8.634;2022-09-17T12:06:34;5.32;;;4.20;;
61527;SDS011;47395;42.032;-8.634;2022-09-17T12:09:02;4.03;;;3.72;;
61527;SDS011;47395;42.032;-8.634;2022-09-17T12:11:10;4.75;;;4.28;;
61527;SDS011;47395;42.032;-8.634;2022-09-17T12:15:51;3.65;;;3.40;;
61527;SDS011;47395;42.032;-8.634;2022-09-17T12:18:26;5.70;;;3.67;;
61527;SDS011;47395;42.032;-8.634;2022-09-17T12:20:43;6.07;;;3.75;;
61527;SDS011;47395;42.032;-8.634;2022-09-17T12:22:47;7.38;;;4.05;;
61527;SDS011;47395;42.032;-8.634;2022-09-17T12:24:50;4.55;;;4.15;;
61527;SDS011;47395;42.032;-8.634;2022-09-17T12:32:28;7.70;;;4.43;;
61527;SDS011;47395;42.032;-8.634;2022-09-17T12:34:55;4.47;;;4.03;;
61527;SDS011;47395;42.032;-8.634;2022-09-17T12:38:06;4.60;;;4.20;;
61527;SDS011;47395;42.032;-8.634;2022-09-17T12:40:29;4.55;;;4.00;;
61527;SDS011;47395;42.032;-8.634;2022-09-17T12:47:56;6.75;;;4.18;;
61527;SDS011;47395;42.032;-8.634;2022-09-17T12:50:41;5.75;;;4.15;;
61527;SDS011;47395;42.032;-8.634;2022-09-17T12:58:54;6.38;;;4.43;;
61527;SDS011;47395;42.032;-8.634;2022-09-17T13:01:13;7.50;;;4.18;;
61527;SDS011;47395;42.032;-8.634;2022-09-17T13:03:38;8.48;;;4.50;;
61527;SDS011;47395;42.032;-8.634;2022-09-17T13:06:03;7.13;;;4.63;;
61527;SDS011;47395;42.032;-8.634;2022-09-17T13:13:54;4.33;;;4.00;;
61527;SDS011;47395;42.032;-8.634;2022-09-17T13:16:31;6.00;;;4.20;;
61527;SDS011;47395;42.032;-8.634;2022-09-17T13:21:43;4.60;;;4.25;;
61527;SDS011;47395;42.032;-8.634;2022-09-17T13:23:59;9.05;;;4.65;;
61527;SDS011;47395;42.032;-8.634;2022-09-17T13:26:01;5.13;;;4.10;;
61527;SDS011;47395;42.032;-8.634;2022-09-17T13:28:08;4.40;;;4.00;;
61527;SDS011;47395;42.032;-8.634;2022-09-17T13:30:11;5.82;;;3.97;;
61527;SDS011;47395;42.032;-8.634;2022-09-17T13:34:33;4.30;;;3.97;;
61527;SDS011;47395;42.032;-8.634;2022-09-17T13:36:38;4.05;;;3.75;;
61527;SDS011;47395;42.032;-8.634;2022-09-17T13:38:50;4.47;;;4.07;;
61527;SDS011;47395;42.032;-8.634;2022-09-17T13:40:51;6.38;;;3.75;;
61527;SDS011;47395;42.032;-8.634;2022-09-17T13:43:21;3.88;;;3.67;;
61527;SDS011;47395;42.032;-8.634;2022-09-17T13:45:26;4.43;;;3.92;;
61527;SDS011;47395;42.032;-8.634;2022-09-17T13:47:30;4.72;;;3.38;;
61527;SDS011;47395;42.032;-8.634;2022-09-17T13:49:32;3.90;;;3.60;;
61527;SDS011;47395;42.032;-8.634;2022-09-17T13:53:52;6.10;;;3.88;;
61527;SDS011;47395;42.032;-8.634;2022-09-17T13:55:56;4.15;;;3.95;;
61527;SDS011;47395;42.032;-8.634;2022-09-17T13:57:58;4.50;;;4.03;;
61527;SDS011;47395;42.032;-8.634;2022-09-17T14:00:01;4.28;;;3.88;;
61527;SDS011;47395;42.032;-8.634;2022-09-17T14:06:56;6.50;;;3.80;;
61527;SDS011;47395;42.032;-8.634;2022-09-17T14:08:58;4.13;;;3.78;;
61527;SDS011;47395;42.032;-8.634;2022-09-17T14:11:37;4.57;;;3.80;;
61527;SDS011;47395;42.032;-8.634;2022-09-17T14:13:40;3.60;;;3.30;;
61527;SDS011;47395;42.032;-8.634;2022-09-17T14:20:33;4.57;;;3.65;;
61527;SDS011;47395;42.032;-8.634;2022-09-17T14:22:34;4.18;;;3.35;;
61527;SDS011;47395;42.032;-8.634;2022-09-17T14:24:50;3.80;;;3.50;;
61527;SDS011;47395;42.032;-8.634;2022-09-17T14:30:02;3.80;;;3.55;;
61527;SDS011;47395;42.032;-8.634;2022-09-17T14:32:00;4.45;;;3.70;;
61527;SDS011;47395;42.032;-8.634;2022-09-17T14:34:03;3.58;;;3.28;;
61527;SDS011;47395;42.032;-8.634;2022-09-17T14:36:09;4.43;;;3.22;;
61527;SDS011;47395;42.032;-8.634;2022-09-17T14:38:31;3.50;;;3.30;;
61527;SDS011;47395;42.032;-8.634;2022-09-17T14:40:58;4.13;;;3.42;;
61527;SDS011;47395;42.032;-8.634;2022-09-17T14:43:03;3.38;;;3.08;;
61527;SDS011;47395;42.032;-8.634;2022-09-17T14:45:11;3.53;;;3.33;;
61527;SDS011;47395;42.032;-8.634;2022-09-17T14:47:19;4.07;;;3.75;;